54FL weather

Teco Plaza Heliport
Tampa, Florida, United States

Public forecast

Using degrees Fahrenheit for public forecast. Weather courtesy of forecast.io.

Closest aviation weather report (METAR) to Teco Plaza Heliport

Closest report is Peter O Knight Airport, 2.1 nm (3.9 km) SSE. Retrieved 2019/12/08 10:35 UTC (0 seconds ago):

KTPF 081035Z AUTO 05006KT 10SM OVC110 A3015 RMK AO2

Closest aviation forecast (TAF) to Teco Plaza Heliport

Closest forecast is Tampa International Airport, 4.2 nm (7.7 km) WNW. Retrieved 2019/12/08 06:22 UTC (4 hours ago):

TAF KTPA 080520Z 0806/0912 05003KT P6SM SCT120 TEMPO 0806/0810 BKN120 FM081500 08006KT P6SM SCT120 SCT250 FM081800 21006KT P6SM SCT040 SCT120 SCT250 FM090000 VRB03KT P6SM FEW250